La Suprema — IBIL — position and weather

sailwx.info

Track history (hours):
 
Tides and Currents Weather Stations Pressure Air Temp Water Temp Dewpoint Dewpoint Depression Visibility Wind Speed Wind Dir Waves Ship Positions

La Suprema

Last reported at 2014-Aug-30 06:13 UTC. Time now 2014-Aug-31 02:32 UTC.
Position N 41°05' E 011°02'.

Length 211 m; draft 7.3 m.

Type: Passenger vessel. MMSI: 247083700.

Date/timePositionNaut miles runAvg speedWind from/ knotsBaromVisibWave heightAir tempDewpointWater temp
2014-Aug-30 06:13N 41°05' E 011°02'1624.5
2014-Aug-30 05:33N 41°19' E 010°50'2724.5
2014-Aug-30 04:28N 41°42' E 010°31'4824.4
2014-Aug-30 02:29N 42°23' E 009°57'2324.5
2014-Aug-30 01:33N 42°44' E 009°46'2424.0
2014-Aug-30 00:33N 43°07' E 009°35'2424.3
2014-Aug-29 23:34N 43°29' E 009°24'2424.4
2014-Aug-29 22:34N 43°52' E 009°12'2424.2
2014-Aug-29 21:34N 44°15' E 009°01'1010.3
2014-Aug-29 20:33N 44°25' E 008°55'0 0.0
2014-Aug-29 19:33N 44°25' E 008°55'0 0.0
2014-Aug-29 18:33N 44°25' E 008°55'0 0.0
2014-Aug-29 17:33N 44°25' E 008°55'0 0.0
2014-Aug-29 16:33N 44°25' E 008°55'4 3.5
2014-Aug-29 15:33N 44°22' E 008°58'2121.5
2014-Aug-29 14:33N 44°02' E 009°09'2221.8
2014-Aug-29 13:33N 43°41' E 009°19'2121.4
2014-Aug-29 12:33N 43°21' E 009°29'6821.5
2014-Aug-29 09:25N 42°16' E 009°53'26023.0
2014-Aug-28 22:07N 38°40' E 013°02'1424.9
2014-Aug-28 21:34N 38°29' E 013°13'2323.0
2014-Aug-28 20:33N 38°08' E 013°24'2 2.0
2014-Aug-28 19:33N 38°08' E 013°22'0 0.0
2014-Aug-28 18:33N 38°08' E 013°22'0 0.0
2014-Aug-28 17:32N 38°08' E 013°22'0 0.0
2014-Aug-28 16:33N 38°08' E 013°22'2 2.0
2014-Aug-28 15:33N 38°09' E 013°24'2020.0
2014-Aug-28 14:33N 38°26' E 013°12'31123.0
2014-Aug-28 01:04N 42°53' E 009°42'1223.8
2014-Aug-28 00:34N 43°04' E 009°36'2424.1
2014-Aug-27 23:34N 43°27' E 009°25'2424.2
2014-Aug-27 22:34N 43°50' E 009°13'2424.2
2014-Aug-27 21:34N 44°12' E 009°01'1312.8
2014-Aug-27 20:33N 44°25' E 008°55'0 0.0
2014-Aug-27 19:33N 44°25' E 008°55'0 0.0
2014-Aug-27 18:33N 44°25' E 008°55'0 0.0
2014-Aug-27 17:33N 44°25' E 008°55'0 0.0
2014-Aug-27 16:33N 44°25' E 008°55'2 2.3
2014-Aug-27 15:33N 44°23' E 008°57'1919.5
2014-Aug-27 14:34N 44°06' E 009°11'2221.6
2014-Aug-27 13:33N 43°48' E 009°28'2120.6
2014-Aug-27 12:33N 43°30' E 009°41'2322.0
2014-Aug-27 11:31N 43°07' E 009°40'28623.1
2014-Aug-26 23:09N 39°06' E 013°03'1525.0
2014-Aug-26 22:33N 38°53' E 013°13'2525.0
2014-Aug-26 21:34N 38°30' E 013°25'2322.6
2014-Aug-26 20:33N 38°08' E 013°24'2 1.6
2014-Aug-26 19:33N 38°08' E 013°22'0 0.0
2014-Aug-26 18:33N 38°08' E 013°22'0 0.0
2014-Aug-26 17:33N 38°08' E 013°22'0 0.0
2014-Aug-26 16:33N 38°08' E 013°22'0 0.0
2014-Aug-26 15:33N 38°08' E 013°22'31321.8
2014-Aug-26 01:10N 42°37' E 009°51'3421.4
2014-Aug-25 23:33N 43°09' E 009°34'2221.6
2014-Aug-25 22:34N 43°29' E 009°24'2221.6
2014-Aug-25 21:34N 43°49' E 009°13'2221.9
2014-Aug-25 20:34N 44°10' E 009°03'1615.6
2014-Aug-25 19:32N 44°25' E 008°55'0 0.0
2014-Aug-25 18:32N 44°25' E 008°55'0 0.0
2014-Aug-25 17:22N 44°25' E 008°55'0 0.0
2014-Aug-25 16:28N 44°25' E 008°55'0 0.0
2014-Aug-25 15:25N 44°25' E 008°55'5 5.5
2014-Aug-25 14:33N 44°21' E 008°59'2221.8
2014-Aug-25 13:33N 43°60' E 009°09'2221.8
2014-Aug-25 12:33N 43°39' E 009°19'2221.6
2014-Aug-25 11:33N 43°19' E 009°28'33323.8
2014-Aug-24 21:33N 38°31' E 013°10'2524.7
2014-Aug-24 20:33N 38°09' E 013°26'3 3.2
2014-Aug-24 19:33N 38°08' E 013°22'0 0.0
2014-Aug-24 18:33N 38°08' E 013°22'0 0.0
2014-Aug-24 17:33N 38°08' E 013°22'0 0.0
2014-Aug-24 16:33N 38°08' E 013°22'0 0.0
2014-Aug-24 15:33N 38°08' E 013°22'1 1.4
2014-Aug-24 14:33N 38°08' E 013°24'1717.3
2014-Aug-24 13:33N 38°24' E 013°15'31922.8
2014-Aug-23 23:33N 43°07' E 009°60'2424.0
2014-Aug-23 22:34N 43°27' E 009°43'2423.6
2014-Aug-23 21:34N 43°47' E 009°26'2423.9
2014-Aug-23 20:33N 44°07' E 009°08'2013.6
2014-Aug-23 19:07N 44°25' E 008°55'39218.1
2014-Aug-22 21:27N 38°39' E 013°03'2022.4
2014-Aug-22 20:33N 38°23' E 013°18'1616.5
2014-Aug-22 19:33N 38°07' E 013°23'1 0.7
2014-Aug-22 18:32N 38°08' E 013°22'0 0.0
2014-Aug-22 17:32N 38°08' E 013°22'0 0.0
2014-Aug-22 16:31N 38°08' E 013°22'0 0.0
2014-Aug-22 15:28N 38°08' E 013°22'1 1.5
2014-Aug-22 14:33N 38°08' E 013°24'2222.1
2014-Aug-22 13:33N 38°28' E 013°12'31322.3
2014-Aug-21 23:32N 43°05' E 009°58'2121.6
2014-Aug-21 22:33N 43°23' E 009°45'2121.1
2014-Aug-21 21:33N 43°42' E 009°30'2121.2
2014-Aug-21 20:33N 43°60' E 009°15'2121.1
2014-Aug-21 19:33N 44°18' E 009°00'8 7.7
2014-Aug-21 18:33N 44°25' E 008°55'0 0.0
2014-Aug-21 17:33N 44°25' E 008°55'0 0.0
2014-Aug-21 16:33N 44°25' E 008°55'0 0.0
2014-Aug-21 15:33N 44°25' E 008°55'3 3.4
2014-Aug-21 14:33N 44°22' E 008°58'2423.8
2014-Aug-21 13:34N 44°00' E 009°12'2524.5
2014-Aug-21 12:34N 43°38' E 009°27'2524.8
2014-Aug-21 11:33N 43°14' E 009°35'31822.2
2014-Aug-20 21:14N 38°38' E 013°04'1521.6
2014-Aug-20 20:33N 38°26' E 013°14'2019.7
2014-Aug-20 19:33N 38°08' E 013°24'2 1.6
2014-Aug-20 18:33N 38°08' E 013°22'0 0.0
2014-Aug-20 17:33N 38°08' E 013°22'0 0.0
2014-Aug-20 16:33N 38°08' E 013°22'0 0.0
2014-Aug-20 15:34N 38°08' E 013°22'0 0.5
2014-Aug-20 14:33N 38°08' E 013°22'1717.2
2014-Aug-20 13:34N 38°24' E 013°15'  
Track history (hours):
 
Tides and Currents Weather Stations Pressure Air Temp Water Temp Dewpoint Dewpoint Depression Visibility Wind Speed Wind Dir Waves Ship Positions

La Suprema

Last reported at 2014-Aug-30 06:13 UTC. Time now 2014-Aug-31 02:32 UTC.
Position N 41°05' E 011°02'.

Length 211 m; draft 7.3 m.

Type: Passenger vessel. MMSI: 247083700.

Date/timePositionNaut miles runAvg speedWind from/ knotsBaromVisibWave heightAir tempDewpointWater temp
2014-Aug-30 06:13N 41°05' E 011°02'1624.5
2014-Aug-30 05:33N 41°19' E 010°50'2724.5
2014-Aug-30 04:28N 41°42' E 010°31'4824.4
2014-Aug-30 02:29N 42°23' E 009°57'2324.5
2014-Aug-30 01:33N 42°44' E 009°46'2424.0
2014-Aug-30 00:33N 43°07' E 009°35'2424.3
2014-Aug-29 23:34N 43°29' E 009°24'2424.4
2014-Aug-29 22:34N 43°52' E 009°12'2424.2
2014-Aug-29 21:34N 44°15' E 009°01'1010.3
2014-Aug-29 20:33N 44°25' E 008°55'0 0.0
2014-Aug-29 19:33N 44°25' E 008°55'0 0.0
2014-Aug-29 18:33N 44°25' E 008°55'0 0.0
2014-Aug-29 17:33N 44°25' E 008°55'0 0.0
2014-Aug-29 16:33N 44°25' E 008°55'4 3.5
2014-Aug-29 15:33N 44°22' E 008°58'2121.5
2014-Aug-29 14:33N 44°02' E 009°09'2221.8
2014-Aug-29 13:33N 43°41' E 009°19'2121.4
2014-Aug-29 12:33N 43°21' E 009°29'6821.5
2014-Aug-29 09:25N 42°16' E 009°53'26023.0
2014-Aug-28 22:07N 38°40' E 013°02'1424.9
2014-Aug-28 21:34N 38°29' E 013°13'2323.0
2014-Aug-28 20:33N 38°08' E 013°24'2 2.0
2014-Aug-28 19:33N 38°08' E 013°22'0 0.0
2014-Aug-28 18:33N 38°08' E 013°22'0 0.0
2014-Aug-28 17:32N 38°08' E 013°22'0 0.0
2014-Aug-28 16:33N 38°08' E 013°22'2 2.0
2014-Aug-28 15:33N 38°09' E 013°24'2020.0
2014-Aug-28 14:33N 38°26' E 013°12'31123.0
2014-Aug-28 01:04N 42°53' E 009°42'1223.8
2014-Aug-28 00:34N 43°04' E 009°36'2424.1
2014-Aug-27 23:34N 43°27' E 009°25'2424.2
2014-Aug-27 22:34N 43°50' E 009°13'2424.2
2014-Aug-27 21:34N 44°12' E 009°01'1312.8
2014-Aug-27 20:33N 44°25' E 008°55'0 0.0
2014-Aug-27 19:33N 44°25' E 008°55'0 0.0
2014-Aug-27 18:33N 44°25' E 008°55'0 0.0
2014-Aug-27 17:33N 44°25' E 008°55'0 0.0
2014-Aug-27 16:33N 44°25' E 008°55'2 2.3
2014-Aug-27 15:33N 44°23' E 008°57'1919.5
2014-Aug-27 14:34N 44°06' E 009°11'2221.6
2014-Aug-27 13:33N 43°48' E 009°28'2120.6
2014-Aug-27 12:33N 43°30' E 009°41'2322.0
2014-Aug-27 11:31N 43°07' E 009°40'28623.1
2014-Aug-26 23:09N 39°06' E 013°03'1525.0
2014-Aug-26 22:33N 38°53' E 013°13'2525.0
2014-Aug-26 21:34N 38°30' E 013°25'2322.6
2014-Aug-26 20:33N 38°08' E 013°24'2 1.6
2014-Aug-26 19:33N 38°08' E 013°22'0 0.0
2014-Aug-26 18:33N 38°08' E 013°22'0 0.0
2014-Aug-26 17:33N 38°08' E 013°22'0 0.0
2014-Aug-26 16:33N 38°08' E 013°22'0 0.0
2014-Aug-26 15:33N 38°08' E 013°22'31321.8
2014-Aug-26 01:10N 42°37' E 009°51'3421.4
2014-Aug-25 23:33N 43°09' E 009°34'2221.6
2014-Aug-25 22:34N 43°29' E 009°24'2221.6
2014-Aug-25 21:34N 43°49' E 009°13'2221.9
2014-Aug-25 20:34N 44°10' E 009°03'1615.6
2014-Aug-25 19:32N 44°25' E 008°55'0 0.0
2014-Aug-25 18:32N 44°25' E 008°55'0 0.0
2014-Aug-25 17:22N 44°25' E 008°55'0 0.0
2014-Aug-25 16:28N 44°25' E 008°55'0 0.0
2014-Aug-25 15:25N 44°25' E 008°55'5 5.5
2014-Aug-25 14:33N 44°21' E 008°59'2221.8
2014-Aug-25 13:33N 43°60' E 009°09'2221.8
2014-Aug-25 12:33N 43°39' E 009°19'2221.6
2014-Aug-25 11:33N 43°19' E 009°28'33323.8
2014-Aug-24 21:33N 38°31' E 013°10'2524.7
2014-Aug-24 20:33N 38°09' E 013°26'3 3.2
2014-Aug-24 19:33N 38°08' E 013°22'0 0.0
2014-Aug-24 18:33N 38°08' E 013°22'0 0.0
2014-Aug-24 17:33N 38°08' E 013°22'0 0.0
2014-Aug-24 16:33N 38°08' E 013°22'0 0.0
2014-Aug-24 15:33N 38°08' E 013°22'1 1.4
2014-Aug-24 14:33N 38°08' E 013°24'1717.3
2014-Aug-24 13:33N 38°24' E 013°15'31922.8
2014-Aug-23 23:33N 43°07' E 009°60'2424.0
2014-Aug-23 22:34N 43°27' E 009°43'2423.6
2014-Aug-23 21:34N 43°47' E 009°26'2423.9
2014-Aug-23 20:33N 44°07' E 009°08'2013.6
2014-Aug-23 19:07N 44°25' E 008°55'39218.1
2014-Aug-22 21:27N 38°39' E 013°03'2022.4
2014-Aug-22 20:33N 38°23' E 013°18'1616.5
2014-Aug-22 19:33N 38°07' E 013°23'1 0.7
2014-Aug-22 18:32N 38°08' E 013°22'0 0.0
2014-Aug-22 17:32N 38°08' E 013°22'0 0.0
2014-Aug-22 16:31N 38°08' E 013°22'0 0.0
2014-Aug-22 15:28N 38°08' E 013°22'1 1.5
2014-Aug-22 14:33N 38°08' E 013°24'2222.1
2014-Aug-22 13:33N 38°28' E 013°12'31322.3
2014-Aug-21 23:32N 43°05' E 009°58'2121.6
2014-Aug-21 22:33N 43°23' E 009°45'2121.1
2014-Aug-21 21:33N 43°42' E 009°30'2121.2
2014-Aug-21 20:33N 43°60' E 009°15'2121.1
2014-Aug-21 19:33N 44°18' E 009°00'8 7.7
2014-Aug-21 18:33N 44°25' E 008°55'0 0.0
2014-Aug-21 17:33N 44°25' E 008°55'0 0.0
2014-Aug-21 16:33N 44°25' E 008°55'0 0.0
2014-Aug-21 15:33N 44°25' E 008°55'3 3.4
2014-Aug-21 14:33N 44°22' E 008°58'2423.8
2014-Aug-21 13:34N 44°00' E 009°12'2524.5
2014-Aug-21 12:34N 43°38' E 009°27'2524.8
2014-Aug-21 11:33N 43°14' E 009°35'31822.2
2014-Aug-20 21:14N 38°38' E 013°04'1521.6
2014-Aug-20 20:33N 38°26' E 013°14'2019.7
2014-Aug-20 19:33N 38°08' E 013°24'2 1.6
2014-Aug-20 18:33N 38°08' E 013°22'0 0.0
2014-Aug-20 17:33N 38°08' E 013°22'0 0.0
2014-Aug-20 16:33N 38°08' E 013°22'0 0.0
2014-Aug-20 15:34N 38°08' E 013°22'0 0.5
2014-Aug-20 14:33N 38°08' E 013°22'1717.2
2014-Aug-20 13:34N 38°24' E 013°15'  

Dump ship's entire track history